createdAt,value
2023-02-08T00:01:09.146Z,27.10
2023-02-08T00:03:37.564Z,23.80
2023-02-08T00:06:06.038Z,25.40
2023-02-08T00:08:36.874Z,29.10
2023-02-08T00:11:05.992Z,23.80
2023-02-08T00:13:34.195Z,26.60
2023-02-08T00:16:02.406Z,27.10
2023-02-08T00:18:31.349Z,23.70
2023-02-08T00:20:59.872Z,26.80
2023-02-08T00:23:27.837Z,25.20
2023-02-08T00:25:55.722Z,24.50
2023-02-08T00:28:23.969Z,32.90
2023-02-08T00:30:53.640Z,28.50
2023-02-08T00:33:22.092Z,27.80
2023-02-08T00:35:50.155Z,27.70
2023-02-08T00:38:21.240Z,29.00
2023-02-08T00:40:50.250Z,27.50
2023-02-08T00:43:18.874Z,31.50
2023-02-08T00:45:47.149Z,27.60
2023-02-08T00:48:15.219Z,23.50
2023-02-08T00:50:45.281Z,23.90
2023-02-08T00:53:13.314Z,23.60
2023-02-08T00:55:42.579Z,23.90
2023-02-08T00:58:11.634Z,32.10
2023-02-08T01:00:40.414Z,28.30
2023-02-08T01:03:08.767Z,28.10
2023-02-08T01:05:42.038Z,33.10
2023-02-08T01:08:10.303Z,32.60
2023-02-08T01:10:38.709Z,24.80
2023-02-08T01:13:06.992Z,39.30
2023-02-08T01:15:35.280Z,30.50
2023-02-08T01:18:03.752Z,30.90
2023-02-08T01:20:34.171Z,35.30
2023-02-08T01:23:03.083Z,37.70
2023-02-08T01:25:33.213Z,38.20
2023-02-08T01:28:01.362Z,33.20
2023-02-08T01:30:29.744Z,39.80
2023-02-08T01:32:57.734Z,32.90
2023-02-08T01:35:29.153Z,31.10
2023-02-08T01:37:59.621Z,27.60
2023-02-08T01:40:27.863Z,27.30
2023-02-08T01:42:56.119Z,30.60
2023-02-08T01:45:26.436Z,31.20
2023-02-08T01:48:12.409Z,27.20
2023-02-08T01:50:48.961Z,32.30
2023-02-08T01:53:17.087Z,35.70
2023-02-08T01:55:49.092Z,29.20
2023-02-08T01:58:18.048Z,29.30
2023-02-08T02:00:46.780Z,30.50
2023-02-08T02:03:15.031Z,29.00
2023-02-08T02:05:50.314Z,33.50
2023-02-08T02:08:18.744Z,33.80
2023-02-08T02:10:49.589Z,42.40
2023-02-08T02:13:20.703Z,34.80
2023-02-08T02:15:49.087Z,39.90
2023-02-08T02:18:23.372Z,40.30
2023-02-08T02:21:13.507Z,35.50
2023-02-08T02:24:20.485Z,29.40
2023-02-08T02:27:06.993Z,34.10
2023-02-08T02:29:50.428Z,32.70
2023-02-08T02:32:24.572Z,37.20
2023-02-08T02:35:01.754Z,32.10
2023-02-08T02:37:29.878Z,37.10
2023-02-08T02:40:10.449Z,31.80
2023-02-08T02:43:26.139Z,26.30
2023-02-08T02:46:05.136Z,33.70
2023-02-08T02:48:59.484Z,26.70
2023-02-08T02:51:33.436Z,29.50
2023-02-08T02:54:14.748Z,30.80
2023-02-08T02:56:46.417Z,33.30
2023-02-08T02:59:16.003Z,39.10
2023-02-08T03:01:45.233Z,30.60
2023-02-08T03:04:14.977Z,33.30
2023-02-08T03:07:04.083Z,30.00
2023-02-08T03:09:35.432Z,28.20
2023-02-08T03:12:15.385Z,27.10
2023-02-08T03:15:22.336Z,31.20
2023-02-08T03:18:00.941Z,33.30
2023-02-08T03:20:40.570Z,36.40
2023-02-08T03:23:19.696Z,33.80
2023-02-08T03:25:51.357Z,35.00
2023-02-08T03:28:25.756Z,36.50
2023-02-08T03:31:01.924Z,36.00
2023-02-08T03:33:37.822Z,38.80
2023-02-08T03:36:09.098Z,38.10
2023-02-08T03:38:40.779Z,36.10
2023-02-08T03:41:12.194Z,39.90
2023-02-08T03:43:47.039Z,39.10
2023-02-08T03:46:19.131Z,34.30
2023-02-08T03:48:49.743Z,38.60
2023-02-08T03:51:18.018Z,34.60
2023-02-08T03:53:46.059Z,33.40
2023-02-08T03:56:21.792Z,33.80
2023-02-08T03:58:52.455Z,34.40
2023-02-08T04:01:24.699Z,36.00
2023-02-08T04:03:54.074Z,33.10
2023-02-08T04:06:22.014Z,34.00
2023-02-08T04:08:50.720Z,35.90
2023-02-08T04:11:20.000Z,37.50
2023-02-08T04:13:48.440Z,30.40
2023-02-08T04:16:16.455Z,33.30
2023-02-08T04:18:44.465Z,35.40
2023-02-08T04:21:12.684Z,30.50
2023-02-08T04:23:41.365Z,30.00
2023-02-08T04:26:09.739Z,30.40
2023-02-08T04:28:38.457Z,36.90
2023-02-08T04:31:06.809Z,30.10
2023-02-08T04:33:36.832Z,31.90
2023-02-08T04:36:05.594Z,31.50
2023-02-08T04:38:34.209Z,28.60
2023-02-08T04:41:02.527Z,40.00
2023-02-08T04:43:30.497Z,30.80
2023-02-08T04:45:58.568Z,41.90
2023-02-08T04:48:26.588Z,38.80
2023-02-08T04:50:58.145Z,44.40
2023-02-08T04:53:26.199Z,39.70
2023-02-08T04:55:54.286Z,35.10
2023-02-08T04:58:22.671Z,37.40
2023-02-08T05:00:50.829Z,40.70
2023-02-08T05:03:18.917Z,39.30
2023-02-08T05:05:47.120Z,34.30
2023-02-08T05:08:15.352Z,39.90
2023-02-08T05:10:46.524Z,39.80
2023-02-08T05:13:14.876Z,38.10
2023-02-08T05:15:43.817Z,42.60
2023-02-08T05:18:13.339Z,37.40
2023-02-08T05:20:41.548Z,37.00
2023-02-08T05:23:09.853Z,36.00
2023-02-08T05:25:39.431Z,39.40
2023-02-08T05:28:07.644Z,35.10
2023-02-08T05:30:36.595Z,39.00
2023-02-08T05:33:04.495Z,39.20
2023-02-08T05:35:32.657Z,39.60
2023-02-08T05:38:01.124Z,41.80
2023-02-08T05:40:29.652Z,35.20
2023-02-08T05:42:57.664Z,36.40
2023-02-08T05:45:25.712Z,33.70
2023-02-08T05:47:53.977Z,37.50
2023-02-08T05:50:22.296Z,42.30
2023-02-08T05:52:52.004Z,41.40
2023-02-08T05:55:19.983Z,39.30
2023-02-08T05:57:47.935Z,44.90
2023-02-08T06:00:17.186Z,39.60
2023-02-08T06:02:45.229Z,36.30
2023-02-08T06:05:13.680Z,34.10
2023-02-08T06:07:42.072Z,35.50
2023-02-08T06:10:11.411Z,39.50
2023-02-08T06:12:40.491Z,41.00
2023-02-08T06:15:09.940Z,46.20
2023-02-08T06:17:38.894Z,41.30
2023-02-08T06:20:07.651Z,48.50
2023-02-08T06:22:35.628Z,39.30
2023-02-08T06:25:03.863Z,41.70
2023-02-08T06:27:32.316Z,40.80
2023-02-08T06:30:00.343Z,42.10
2023-02-08T06:32:28.780Z,39.60
2023-02-08T06:34:57.112Z,42.20
2023-02-08T06:37:25.101Z,33.50
2023-02-08T06:39:53.157Z,36.70
2023-02-08T06:42:21.335Z,38.80
2023-02-08T06:44:55.176Z,38.80
2023-02-08T06:50:16.649Z,41.90
2023-02-08T06:52:44.896Z,36.40
2023-02-08T06:55:12.800Z,35.50
2023-02-08T06:57:42.454Z,35.30
2023-02-08T07:00:12.118Z,40.30
2023-02-08T07:02:40.339Z,37.50
2023-02-08T07:05:08.513Z,37.30
2023-02-08T07:07:37.014Z,34.80
2023-02-08T07:10:05.230Z,32.60
2023-02-08T07:12:36.816Z,38.50
2023-02-08T07:15:04.840Z,38.70
2023-02-08T07:17:34.094Z,41.70
2023-02-08T07:20:01.979Z,42.00
2023-02-08T07:22:30.198Z,42.20
2023-02-08T07:24:59.456Z,38.50
2023-02-08T07:27:27.276Z,45.90
2023-02-08T07:29:55.425Z,41.00
2023-02-08T07:32:23.334Z,41.30
2023-02-08T07:34:51.290Z,41.40
2023-02-08T07:37:19.158Z,46.00
2023-02-08T07:39:47.209Z,48.50
2023-02-08T07:42:15.175Z,42.50
2023-02-08T07:44:51.890Z,45.50
2023-02-08T07:47:19.820Z,42.00
2023-02-08T07:49:47.862Z,44.40
2023-02-08T07:52:16.169Z,44.30
2023-02-08T07:54:44.240Z,36.90
2023-02-08T07:57:12.154Z,44.30
2023-02-08T07:59:40.220Z,40.90
2023-02-08T08:02:08.899Z,38.70
2023-02-08T08:04:37.533Z,45.50
2023-02-08T08:07:06.285Z,41.20
2023-02-08T08:09:35.029Z,33.50
2023-02-08T08:12:03.270Z,42.80
2023-02-08T08:14:31.532Z,34.90
2023-02-08T08:16:59.437Z,39.30
2023-02-08T08:19:28.780Z,38.70
2023-02-08T08:21:57.066Z,41.60
2023-02-08T08:24:25.153Z,37.00
2023-02-08T08:26:53.940Z,40.20
2023-02-08T08:29:21.901Z,41.90
2023-02-08T08:31:49.841Z,45.80
2023-02-08T08:34:17.805Z,38.80
2023-02-08T08:36:46.116Z,43.70
2023-02-08T08:39:13.977Z,38.20
2023-02-08T08:41:41.930Z,41.70
2023-02-08T08:44:09.928Z,39.00
2023-02-08T08:46:38.213Z,40.40
2023-02-08T08:49:06.549Z,39.10
2023-02-08T08:51:35.610Z,41.70
2023-02-08T08:54:04.796Z,41.00
2023-02-08T08:56:32.872Z,43.60
2023-02-08T08:59:01.301Z,37.30
2023-02-08T09:01:29.556Z,40.10
2023-02-08T09:03:57.504Z,41.90
2023-02-08T09:06:25.657Z,37.50
2023-02-08T09:08:53.752Z,38.30
2023-02-08T09:11:21.670Z,32.10
2023-02-08T09:13:52.999Z,29.70
2023-02-08T09:16:24.868Z,32.80
2023-02-08T09:18:52.996Z,34.90
2023-02-08T09:21:22.568Z,32.70
2023-02-08T09:23:50.627Z,33.30
2023-02-08T09:26:19.469Z,31.70
2023-02-08T09:28:47.470Z,37.00
2023-02-08T09:31:19.632Z,30.90
2023-02-08T09:33:48.813Z,32.30
2023-02-08T09:36:17.176Z,34.50
2023-02-08T09:38:45.374Z,33.00
2023-02-08T09:41:38.751Z,30.20
2023-02-08T09:44:28.625Z,29.80
2023-02-08T09:47:03.633Z,24.60
2023-02-08T09:49:34.517Z,30.90
2023-02-08T09:52:04.491Z,23.20
2023-02-08T09:54:38.307Z,24.80
2023-02-08T09:57:13.777Z,27.40
2023-02-08T09:59:47.444Z,23.60
2023-02-08T10:02:32.576Z,23.80
2023-02-08T10:05:03.938Z,25.80
2023-02-08T10:07:33.091Z,27.20
2023-02-08T10:10:12.128Z,29.50
2023-02-08T10:12:48.001Z,26.50
2023-02-08T10:15:36.679Z,28.10
2023-02-08T10:18:26.396Z,24.80
2023-02-08T10:21:31.525Z,26.10
2023-02-08T10:24:11.898Z,29.40
2023-02-08T10:26:53.329Z,27.60
2023-02-08T10:29:31.704Z,23.50
2023-02-08T10:32:22.697Z,36.40
2023-02-08T10:35:03.351Z,46.70
2023-02-08T10:37:36.028Z,50.60
2023-02-08T10:40:44.154Z,41.00
2023-02-08T10:43:35.621Z,30.80
2023-02-08T10:46:26.623Z,25.60
2023-02-08T10:49:07.663Z,22.90
2023-02-08T10:51:36.381Z,20.80
2023-02-08T10:54:04.830Z,19.60
2023-02-08T10:56:52.988Z,19.20
2023-02-08T10:59:26.904Z,23.00
2023-02-08T11:01:54.976Z,26.30
2023-02-08T11:04:22.869Z,21.60
2023-02-08T11:06:51.923Z,23.80
2023-02-08T11:09:23.922Z,23.00
2023-02-08T11:11:56.432Z,20.90
2023-02-08T11:14:46.277Z,22.10
2023-02-08T11:17:27.730Z,22.40
2023-02-08T11:19:56.111Z,25.40
2023-02-08T11:22:26.824Z,26.70
2023-02-08T11:24:57.763Z,25.40
2023-02-08T11:27:28.686Z,25.20
2023-02-08T11:30:15.845Z,27.90
2023-02-08T11:32:48.672Z,26.00
2023-02-08T11:35:26.009Z,23.20
2023-02-08T11:37:55.477Z,25.20
2023-02-08T11:40:29.790Z,24.00
2023-02-08T11:42:57.877Z,22.70
2023-02-08T11:45:31.214Z,22.10
2023-02-08T11:48:01.706Z,23.40
2023-02-08T11:50:34.936Z,22.70
2023-02-08T11:55:35.257Z,20.50
2023-02-08T11:58:04.754Z,20.60
2023-02-08T12:00:36.451Z,22.00
2023-02-08T12:03:15.085Z,21.40
2023-02-08T12:05:54.248Z,21.10
2023-02-08T12:09:00.680Z,20.50
2023-02-08T12:11:49.131Z,18.40
2023-02-08T12:14:42.375Z,17.20
2023-02-08T12:17:55.677Z,18.30
2023-02-08T12:20:45.449Z,18.30
2023-02-08T12:23:46.592Z,17.30
2023-02-08T12:26:25.895Z,15.60
2023-02-08T12:29:06.871Z,15.60
2023-02-08T12:31:42.884Z,15.90
2023-02-08T12:34:22.750Z,15.40
2023-02-08T12:37:22.088Z,16.40
2023-02-08T12:40:18.687Z,14.50
2023-02-08T12:43:15.432Z,14.70
2023-02-08T12:45:59.112Z,15.90
2023-02-08T12:48:35.581Z,14.70
2023-02-08T12:51:28.740Z,15.00
2023-02-08T12:54:30.902Z,17.30
2023-02-08T12:57:02.440Z,20.60
2023-02-08T12:59:56.544Z,21.20
2023-02-08T13:02:57.473Z,20.80
2023-02-08T13:05:28.745Z,19.60
2023-02-08T13:08:32.809Z,21.40
2023-02-08T13:11:18.857Z,21.00
2023-02-08T13:14:13.022Z,18.80
2023-02-08T13:16:44.172Z,18.00
2023-02-08T13:19:24.859Z,20.20
2023-02-08T13:21:53.639Z,21.80
2023-02-08T13:24:38.761Z,21.20
2023-02-08T13:27:08.250Z,16.60
2023-02-08T13:29:36.396Z,20.30
2023-02-08T13:32:29.798Z,17.30
2023-02-08T13:35:02.898Z,20.10
2023-02-08T13:37:32.426Z,21.70
2023-02-08T13:40:12.876Z,23.20
2023-02-08T13:42:43.169Z,22.80
2023-02-08T13:45:25.712Z,27.20
2023-02-08T13:48:02.471Z,23.60
2023-02-08T13:50:44.848Z,21.50
2023-02-08T13:53:14.880Z,26.30
2023-02-08T13:55:43.058Z,24.40
2023-02-08T13:58:14.137Z,24.30
2023-02-08T14:00:54.990Z,24.30
2023-02-08T14:03:27.898Z,24.60
2023-02-08T14:06:22.575Z,24.30
2023-02-08T14:08:57.510Z,26.70
2023-02-08T14:11:57.334Z,26.40
2023-02-08T14:14:26.738Z,21.40
2023-02-08T14:17:04.167Z,28.30
2023-02-08T14:19:33.890Z,27.90
2023-02-08T14:22:07.089Z,26.60
2023-02-08T14:24:49.829Z,31.80
2023-02-08T14:27:40.964Z,24.20
2023-02-08T14:30:17.929Z,23.60
2023-02-08T14:33:04.939Z,24.20
2023-02-08T14:35:34.332Z,23.90
2023-02-08T14:38:32.852Z,26.40
2023-02-08T14:41:02.029Z,24.30
2023-02-08T14:43:41.177Z,29.30
2023-02-08T14:46:54.976Z,32.10
2023-02-08T14:49:23.254Z,33.90
2023-02-08T14:51:56.873Z,29.70
2023-02-08T14:54:33.032Z,33.00
2023-02-08T14:57:04.156Z,35.90
2023-02-08T14:59:32.706Z,37.50
2023-02-08T15:02:11.392Z,32.00
2023-02-08T15:04:44.514Z,31.20
2023-02-08T15:07:16.578Z,32.70
2023-02-08T15:09:45.537Z,30.70
2023-02-08T15:12:30.450Z,32.20
2023-02-08T15:15:01.448Z,34.10
2023-02-08T15:17:34.122Z,35.60
2023-02-08T15:20:06.070Z,35.20
2023-02-08T15:22:40.344Z,40.80
2023-02-08T15:25:35.575Z,35.20
2023-02-08T15:28:22.302Z,36.50
2023-02-08T15:31:09.598Z,37.70
2023-02-08T15:33:43.705Z,33.70
2023-02-08T15:36:21.203Z,37.30
2023-02-08T15:38:49.337Z,32.70
2023-02-08T15:41:31.772Z,33.20
2023-02-08T15:44:20.595Z,32.80
2023-02-08T15:46:50.022Z,33.10
2023-02-08T15:49:22.200Z,36.50
2023-02-08T15:51:51.083Z,35.70
2023-02-08T15:54:19.116Z,34.60
2023-02-08T15:57:17.781Z,32.50
2023-02-08T15:59:46.063Z,35.70
2023-02-08T16:02:21.101Z,35.20
2023-02-08T16:04:49.132Z,35.00
2023-02-08T16:07:35.154Z,36.60
2023-02-08T16:10:04.603Z,39.60
2023-02-08T16:12:33.226Z,33.90
2023-02-08T16:15:02.854Z,27.70
2023-02-08T16:17:36.076Z,31.30
2023-02-08T16:20:31.944Z,34.70
2023-02-08T16:23:03.884Z,28.60
2023-02-08T16:25:49.243Z,31.50
2023-02-08T16:28:35.409Z,31.60
2023-02-08T16:31:04.410Z,29.40
2023-02-08T16:33:33.038Z,35.50
2023-02-08T16:36:03.776Z,40.90
2023-02-08T16:38:36.612Z,37.90
2023-02-08T16:41:12.299Z,38.80
2023-02-08T16:43:44.582Z,33.90
2023-02-08T16:46:19.853Z,38.90
2023-02-08T16:48:51.527Z,40.10
2023-02-08T16:51:22.217Z,41.40
2023-02-08T16:53:51.942Z,41.30
2023-02-08T16:56:20.128Z,48.50
2023-02-08T16:58:48.355Z,41.90
2023-02-08T17:01:45.245Z,36.40
2023-02-08T17:04:19.124Z,38.50
2023-02-08T17:06:47.043Z,35.00
2023-02-08T17:09:15.065Z,56.40
2023-02-08T17:11:43.008Z,55.30
2023-02-08T17:14:11.205Z,53.70
2023-02-08T17:16:40.032Z,54.90
2023-02-08T17:19:10.866Z,58.90
2023-02-08T17:21:39.075Z,56.20
2023-02-08T17:24:06.915Z,75.20
2023-02-08T17:26:38.919Z,100.00
2023-02-08T17:29:07.827Z,111.00
2023-02-08T17:31:36.079Z,92.70
2023-02-08T17:34:06.915Z,88.60
2023-02-08T17:36:36.535Z,99.50
2023-02-08T17:39:05.745Z,89.00
2023-02-08T17:41:34.563Z,79.10
2023-02-08T17:44:02.692Z,68.50
2023-02-08T17:46:31.124Z,72.40
2023-02-08T17:49:01.704Z,68.50
2023-02-08T17:51:33.008Z,70.30
2023-02-08T17:54:05.066Z,83.80
2023-02-08T17:56:36.726Z,74.10
2023-02-08T17:59:05.642Z,76.20
2023-02-08T18:01:34.095Z,86.30
2023-02-08T18:04:02.656Z,74.40
2023-02-08T18:06:31.328Z,73.40
2023-02-08T18:08:59.183Z,83.80
2023-02-08T18:11:27.272Z,108.60
2023-02-08T18:13:55.812Z,116.80
2023-02-08T18:16:26.484Z,105.00
2023-02-08T18:18:56.497Z,90.20
2023-02-08T18:21:26.179Z,79.70
2023-02-08T18:23:55.592Z,73.10
2023-02-08T18:26:24.230Z,70.70
2023-02-08T18:28:52.930Z,75.20
2023-02-08T18:31:21.239Z,67.20
2023-02-08T18:33:49.962Z,79.40
2023-02-08T18:36:19.110Z,65.60
2023-02-08T18:38:47.749Z,71.90
2023-02-08T18:41:23.905Z,94.20
2023-02-08T18:43:52.229Z,111.20
2023-02-08T18:46:21.484Z,128.30
2023-02-08T18:48:50.831Z,117.90
2023-02-08T18:51:19.941Z,100.00
2023-02-08T18:53:50.920Z,71.80
2023-02-08T18:56:24.275Z,62.50
2023-02-08T18:58:53.861Z,68.00
2023-02-08T19:01:23.156Z,64.10
2023-02-08T19:03:52.195Z,65.50
2023-02-08T19:08:25.316Z,65.10
2023-02-08T19:10:53.432Z,63.80
2023-02-08T19:13:21.396Z,62.50
2023-02-08T19:15:49.928Z,68.80
2023-02-08T19:18:17.911Z,58.30
2023-02-08T19:20:45.809Z,65.30
2023-02-08T19:23:13.692Z,63.10
2023-02-08T19:25:42.306Z,62.20
2023-02-08T19:28:10.861Z,63.50
2023-02-08T19:30:40.188Z,69.90
2023-02-08T19:33:08.743Z,61.70
2023-02-08T19:35:38.568Z,59.10
2023-02-08T19:38:06.701Z,61.10
2023-02-08T19:40:35.555Z,61.80
2023-02-08T19:43:04.299Z,54.80
2023-02-08T19:45:32.539Z,57.20
2023-02-08T19:48:00.445Z,52.40
2023-02-08T19:50:28.733Z,49.20
2023-02-08T19:52:57.334Z,42.20
2023-02-08T19:55:26.002Z,36.60
2023-02-08T19:57:54.374Z,31.70
2023-02-08T20:00:24.282Z,33.50
2023-02-08T20:02:52.855Z,35.90
2023-02-08T20:05:20.864Z,40.00
2023-02-08T20:07:49.561Z,46.40
2023-02-08T20:10:18.277Z,39.70
2023-02-08T20:12:46.394Z,57.00
2023-02-08T20:15:16.092Z,46.00
2023-02-08T20:17:46.119Z,47.60
2023-02-08T20:20:14.709Z,45.40
2023-02-08T20:22:43.114Z,47.50
2023-02-08T20:25:10.996Z,48.60
2023-02-08T20:27:39.225Z,50.30
2023-02-08T20:30:07.596Z,51.00
2023-02-08T20:32:35.887Z,40.40
2023-02-08T20:35:04.619Z,39.10
2023-02-08T20:37:33.757Z,44.10
2023-02-08T20:40:01.897Z,38.40
2023-02-08T20:42:30.339Z,40.90
2023-02-08T20:44:58.479Z,38.10
2023-02-08T20:47:28.536Z,37.00
2023-02-08T20:49:59.615Z,37.90
2023-02-08T20:52:29.583Z,40.40
2023-02-08T20:54:57.686Z,38.10
2023-02-08T20:57:25.767Z,40.20
2023-02-08T20:59:53.979Z,39.50
2023-02-08T21:02:22.576Z,42.10
2023-02-08T21:04:50.500Z,44.90
2023-02-08T21:07:18.514Z,49.80
2023-02-08T21:09:47.081Z,47.70
2023-02-08T21:12:14.979Z,51.70
2023-02-08T21:14:44.704Z,50.60
2023-02-08T21:17:17.788Z,43.60
2023-02-08T21:19:47.816Z,46.20
2023-02-08T21:22:17.196Z,51.20
2023-02-08T21:24:45.146Z,52.40
2023-02-08T21:27:13.526Z,48.80
2023-02-08T21:29:42.198Z,36.50
2023-02-08T21:32:10.323Z,43.20
2023-02-08T21:34:38.280Z,40.10
2023-02-08T21:37:06.209Z,36.90
2023-02-08T21:39:34.694Z,36.30
2023-02-08T21:42:03.145Z,43.70
2023-02-08T21:44:35.249Z,38.70
2023-02-08T21:47:03.275Z,49.20
2023-02-08T21:49:50.426Z,49.30
2023-02-08T21:52:37.008Z,56.10
2023-02-08T21:55:06.019Z,48.10
2023-02-08T21:57:39.944Z,51.50
2023-02-08T22:00:10.390Z,51.00
2023-02-08T22:02:41.338Z,48.60
2023-02-08T22:05:28.529Z,54.50
2023-02-08T22:08:00.048Z,48.00
2023-02-08T22:10:30.372Z,52.80
2023-02-08T22:12:58.972Z,49.50
2023-02-08T22:15:29.231Z,52.80
2023-02-08T22:17:59.089Z,49.70
2023-02-08T22:20:28.101Z,54.00
2023-02-08T22:22:56.418Z,47.30
2023-02-08T22:25:24.818Z,42.10
2023-02-08T22:27:53.355Z,43.60
2023-02-08T22:30:23.837Z,48.40
2023-02-08T22:32:53.397Z,46.90
2023-02-08T22:35:22.755Z,43.20
2023-02-08T22:37:50.974Z,42.50
2023-02-08T22:40:19.251Z,47.90
2023-02-08T22:42:47.585Z,42.70
2023-02-08T22:45:15.480Z,40.80
2023-02-08T22:47:44.687Z,48.40
2023-02-08T22:50:14.375Z,47.00
2023-02-08T22:52:42.445Z,44.60
2023-02-08T22:55:12.381Z,50.30
2023-02-08T22:57:43.630Z,48.20
2023-02-08T23:00:14.394Z,53.80
2023-02-08T23:02:43.125Z,48.80
2023-02-08T23:05:11.319Z,46.50
2023-02-08T23:07:40.347Z,50.90
2023-02-08T23:10:09.643Z,52.30
2023-02-08T23:12:38.163Z,47.30
2023-02-08T23:15:06.749Z,50.30
2023-02-08T23:17:36.528Z,48.20
2023-02-08T23:20:04.625Z,47.00
2023-02-08T23:22:36.691Z,51.30
2023-02-08T23:25:05.152Z,52.50
2023-02-08T23:27:33.911Z,54.30
2023-02-08T23:30:02.082Z,53.00
2023-02-08T23:32:30.340Z,47.50
2023-02-08T23:34:58.410Z,48.10
2023-02-08T23:37:26.994Z,48.40
2023-02-08T23:39:55.278Z,45.70
2023-02-08T23:42:26.881Z,44.20
2023-02-08T23:44:56.132Z,45.30
2023-02-08T23:47:24.518Z,40.20
2023-02-08T23:49:52.700Z,43.30
2023-02-08T23:52:21.062Z,39.60
2023-02-08T23:54:49.560Z,36.70
2023-02-08T23:57:17.857Z,42.10
2023-02-08T23:59:45.979Z,36.30
